Observations for PRATICA DI MARE, Italy (LIRE)

LIRE 201955Z 02004KT CAVOK 08/05 Q1025 RMK SKC VIS MIN 9999 WIND THR13 03002KT WIND THR31 /////KT BLU   
LIRE 201855Z 36004KT CAVOK 09/05 Q1025 RMK SKC VIS MIN 9999 WIND THR13 36002KT WIND THR31 /////KT BLU   
LIRE 201755Z 35003KT CAVOK 09/05 Q1024 RMK SKC VIS MIN 9999 WIND THR13 33004KT WIND THR31 /////KT BLU   
LIRE 201655Z 31006KT CAVOK 11/05 Q1024 RMK SKC VIS MIN 9999 WIND THR13 31005KT WIND THR31 /////KT BLU   
LIRE 201555Z 28010KT CAVOK 13/05 Q1024 RMK SKC VIS MIN 9999 WIND THR13 30008KT WIND THR31 /////KT BLU   
LIRE 201455Z 26011KT CAVOK 14/05 Q1024 RMK SKC VIS MIN 9999 WIND THR13 28009KT WIND THR31 /////KT BLU   
LIRE 201355Z 27010KT CAVOK 14/04 Q1024 RMK SKC VIS MIN 9999 WIND THR13 27008KT WIND THR31 /////KT BLU   
LIRE 201255Z 25010KT CAVOK 14/04 Q1024 RMK SKC VIS MIN 9999 WIND THR13 26009KT WIND THR31 /////KT BLU   
LIRE 201155Z 35006KT CAVOK 14/01 Q1024 RMK SKC VIS MIN 9999 WIND THR13 35008KT WIND THR31 /////KT BLU   
LIRE 201055Z 03007KT CAVOK 13/02 Q1025 RMK SKC VIS MIN 9999 WIND THR13 03008KT WIND THR31 /////KT BLU   
LIRE 200955Z 02009KT CAVOK 13/03 Q1025 RMK SKC VIS MIN 9999 WIND THR13 04009KT WIND THR31 /////KT BLU   
LIRE 200855Z 02008KT CAVOK 11/03 Q1024 RMK SKC VIS MIN 9999 WIND THR13 03010KT WIND THR31 /////KT BLU   
LIRE 200755Z 03009KT CAVOK 10/05 Q1024 RMK SKC VIS MIN 9999 WIND THR13 03009KT WIND THR31 /////KT BLU   
LIRE 200655Z 02007KT 9999 FEW070 05/03 Q1024 RMK FEW VIS MIN 9999 WIND THR13 04008KT WIND THR31 /////KT BLU 
LIRE 200555Z 03008KT 9999 FEW070 04/03 Q1023 RMK FEW VIS MIN 9999 WIND THR13 04007KT WIND THR31 /////KT BLU 
LIRE 200455Z 03008KT 9999 FEW040 05/03 Q1023 RMK FEW VIS MIN 9999 WIND THR13 03006KT WIND THR31 /////KT BLU 
LIRE 200355Z 03006KT 9999 BKN040 06/04 Q1023 RMK BKN VIS MIN 9999 WIND THR13 04006KT WIND THR31 /////KT BLU 
LIRE 200255Z 03006KT 9999 BKN040 06/04 Q1023 RMK BKN VIS MIN 9999 WIND THR13 04006KT WIND THR31 /////KT BLU 
LIRE 200155Z 04005KT 9999 BKN040 06/04 Q1023 RMK BKN VIS MIN 9999 WIND THR13 03005KT WIND THR31 /////KT BLU 
LIRE 200055Z 04006KT 9999 SCT040 05/04 Q1023 RMK SCT VIS MIN 9999 WIND THR13 03003KT WIND THR31 /////KT BLU 
LIRE 192355Z 04005KT 9999 FEW040 04/03 Q1023 RMK FEW VIS MIN 9999 WIND THR13 04003KT WIND THR31 /////KT BLU 
LIRE 192255Z 02005KT CAVOK 04/03 Q1023 RMK SKC VIS MIN 9999 WIND THR13 04003KT WIND THR31 /////KT BLU   
LIRE 192155Z 02005KT CAVOK 05/03 Q1023 RMK SKC VIS MIN 9999 WIND THR13 03002KT WIND THR31 /////KT BLU   
LIRE 192055Z 02004KT CAVOK 05/03 Q1023 RMK SKC VIS MIN 9999 WIND THR13 04003KT WIND THR31 /////KT BLU   
LIRE 191955Z 02004KT CAVOK 05/03 Q1023 RMK SKC VIS MIN 9999 WIND THR13 02002KT WIND THR31 /////KT BLU